Time;durP1;ratioP1;P1;durP2;ratioP2;P2;SDS_P1;SDS_P2;PMS_P1;PMS_P2;Temp;Humidity;BMP_temperature;BMP_pressure;BME280_temperature;BME280_humidity;BME280_pressure;Samples;Min_cycle;Max_cycle;Signal;HPM_P1;HPM_P2
2021/03/29 00:00:14;;;;;;;;;;;19.50;53.00;;;;;;5053022;28;1902;-70
2021/03/29 00:02:40;;;;;;;;;;;19.50;53.00;;;;;;5065441;28;1091;-70
2021/03/29 00:05:06;;;;;;;;;;;19.50;53.00;;;;;;5073524;28;1183;-70
2021/03/29 00:07:31;;;;;;;;;;;19.50;53.00;;;;;;5071993;28;1334;-71
2021/03/29 00:09:57;;;;;;;;;;;19.50;53.00;;;;;;5073520;28;1080;-71
2021/03/29 00:12:22;;;;;;;;;;;19.50;53.00;;;;;;5073420;28;1103;-71
2021/03/29 00:14:47;;;;;;;;;;;19.40;53.00;;;;;;5056552;28;1261;-71
2021/03/29 00:17:13;;;;;;;;;;;19.50;53.10;;;;;;5072022;28;1075;-70
2021/03/29 00:19:39;;;;;;;;;;;19.40;53.10;;;;;;5073811;28;1910;-71
2021/03/29 00:22:04;;;;;;;;;;;19.50;53.10;;;;;;5052947;28;1419;-70
2021/03/29 00:24:30;;;;;;;;;;;19.50;53.10;;;;;;5070481;28;2556;-71
2021/03/29 00:26:56;;;;;;;;;;;19.50;53.20;;;;;;5072445;28;1323;-70
2021/03/29 00:29:21;;;;;;;;;;;19.50;53.20;;;;;;5071873;28;1380;-70
2021/03/29 00:31:46;;;;;;;;;;;19.50;53.20;;;;;;5072345;28;1436;-70
2021/03/29 00:34:12;;;;;;;;;;;19.40;53.10;;;;;;5055585;28;1289;-71
2021/03/29 00:36:37;;;;;;;;;;;19.40;53.20;;;;;;5072743;28;1429;-70
2021/03/29 00:39:04;;;;;;;;;;;19.40;53.20;;;;;;5071368;28;1941;-70
2021/03/29 00:41:30;;;;;;;;;;;19.40;53.20;;;;;;5072704;28;1458;-70
2021/03/29 00:43:55;;;;;;;;;;;19.40;53.20;;;;;;5070663;28;1224;-70
2021/03/29 00:46:21;;;;;;;;;;;19.40;53.20;;;;;;5055994;28;1314;-71
2021/03/29 00:48:47;;;;;;;;;;;19.40;53.20;;;;;;5069978;28;1261;-70
2021/03/29 00:51:17;;;;;;;;;;;19.40;53.20;;;;;;5059628;28;1393;-70
2021/03/29 00:53:53;;;;;;;;;;;19.40;53.20;;;;;;5073022;28;1383;-70
2021/03/29 00:56:18;;;;;;;;;;;19.40;53.30;;;;;;5072588;28;1135;-70
2021/03/29 00:58:44;;;;;;;;;;;19.40;53.30;;;;;;5071181;28;1959;-70
2021/03/29 01:01:10;;;;;;;;;;;19.40;53.30;;;;;;5072146;28;1053;-70
2021/03/29 01:03:36;;;;;;;;;;;19.40;53.30;;;;;;5072008;28;1141;-70
2021/03/29 01:06:04;;;;;;;;;;;19.40;53.30;;;;;;5072011;28;1135;-70
2021/03/29 01:08:29;;;;;;;;;;;19.40;53.30;;;;;;5067896;22;2157;-65
2021/03/29 01:10:55;;;;;;;;;;;19.40;53.30;;;;;;5031163;28;926;-64
2021/03/29 01:13:20;;;;;;;;;;;19.40;53.30;;;;;;5052282;28;1327;-65
2021/03/29 01:15:46;;;;;;;;;;;19.40;53.30;;;;;;5035671;28;1264;-65
2021/03/29 01:18:13;;;;;;;;;;;19.40;53.30;;;;;;5033073;28;1284;-65
2021/03/29 01:20:57;;;;;;;;;;;19.40;53.40;;;;;;5015948;28;1160;-65
2021/03/29 01:23:22;;;;;;;;;;;19.40;53.40;;;;;;5045057;28;1129;-66
2021/03/29 01:25:49;;;;;;;;;;;19.40;53.40;;;;;;5015723;28;1164;-65
2021/03/29 01:28:16;;;;;;;;;;;19.40;53.40;;;;;;5015372;28;1349;-65
2021/03/29 01:30:42;;;;;;;;;;;19.30;53.40;;;;;;5015441;28;1085;-65
2021/03/29 01:33:07;;;;;;;;;;;19.30;53.40;;;;;;5018660;28;1096;-65
2021/03/29 01:35:37;;;;;;;;;;;19.30;53.40;;;;;;5015677;28;1136;-65
2021/03/29 01:38:02;;;;;;;;;;;19.30;53.40;;;;;;5032836;28;1353;-65
2021/03/29 01:40:28;;;;;;;;;;;19.30;53.40;;;;;;5015457;28;1967;-65
2021/03/29 01:42:53;;;;;;;;;;;19.30;53.40;;;;;;5015388;28;1145;-65
2021/03/29 01:45:19;;;;;;;;;;;19.30;53.50;;;;;;5015237;28;1121;-65
2021/03/29 01:47:44;;;;;;;;;;;19.30;53.50;;;;;;5032742;28;1041;-64
2021/03/29 01:50:12;;;;;;;;;;;19.30;53.40;;;;;;5015300;28;1401;-65
2021/03/29 01:52:38;;;;;;;;;;;19.30;53.50;;;;;;5015371;28;1101;-65
2021/03/29 01:55:04;;;;;;;;;;;19.30;53.50;;;;;;5015343;28;1505;-67
2021/03/29 01:57:30;;;;;;;;;;;19.30;53.50;;;;;;5032545;28;1120;-67
2021/03/29 01:59:55;;;;;;;;;;;19.30;53.50;;;;;;5015125;28;1918;-67
2021/03/29 02:02:21;;;;;;;;;;;19.30;53.50;;;;;;5032082;28;1060;-67
2021/03/29 02:04:46;;;;;;;;;;;19.30;53.50;;;;;;5015319;28;1101;-67
2021/03/29 02:07:11;;;;;;;;;;;19.30;53.50;;;;;;5014958;28;1368;-68
2021/03/29 02:09:37;;;;;;;;;;;19.30;53.60;;;;;;5014987;28;1400;-68
2021/03/29 02:12:06;;;;;;;;;;;19.30;53.60;;;;;;5014941;28;1366;-67
2021/03/29 02:14:31;;;;;;;;;;;19.30;53.60;;;;;;5014828;28;1475;-67
2021/03/29 02:16:57;;;;;;;;;;;19.30;53.60;;;;;;5015041;28;1302;-66
2021/03/29 02:19:22;;;;;;;;;;;19.30;53.60;;;;;;5014732;28;1914;-67
2021/03/29 02:21:48;;;;;;;;;;;19.30;53.60;;;;;;5019525;28;1237;-67
2021/03/29 02:24:13;;;;;;;;;;;19.30;53.70;;;;;;5001566;28;1295;-67
2021/03/29 02:26:39;;;;;;;;;;;19.30;53.70;;;;;;5032487;28;1260;-67
2021/03/29 02:29:04;;;;;;;;;;;19.30;53.70;;;;;;5014505;28;1227;-67
2021/03/29 02:31:30;;;;;;;;;;;19.30;53.70;;;;;;5015277;28;1093;-67
2021/03/29 02:33:56;;;;;;;;;;;19.30;53.70;;;;;;5035314;28;1084;-66
2021/03/29 02:36:21;;;;;;;;;;;19.30;53.70;;;;;;5032570;28;1155;-67
2021/03/29 02:38:50;;;;;;;;;;;19.30;53.70;;;;;;5032044;28;1910;-67
2021/03/29 02:41:16;;;;;;;;;;;19.30;53.70;;;;;;5014774;28;1136;-67
2021/03/29 02:43:44;;;;;;;;;;;19.20;53.70;;;;;;5014864;28;1077;-67
2021/03/29 02:46:10;;;;;;;;;;;19.20;53.70;;;;;;5014858;28;1128;-67
2021/03/29 02:48:36;;;;;;;;;;;19.20;53.70;;;;;;5014326;28;1712;-67
2021/03/29 02:51:02;;;;;;;;;;;19.20;53.70;;;;;;5032602;28;1297;-67
2021/03/29 02:53:29;;;;;;;;;;;19.20;53.70;;;;;;5014734;28;1361;-67
2021/03/29 02:55:55;;;;;;;;;;;19.20;53.70;;;;;;5032229;28;1314;-67
2021/03/29 02:58:22;;;;;;;;;;;19.20;53.70;;;;;;5031879;28;1965;-67
2021/03/29 03:00:47;;;;;;;;;;;19.20;53.80;;;;;;5032979;28;1326;-67
2021/03/29 03:03:12;;;;;;;;;;;19.20;53.80;;;;;;5014630;28;1261;-66
2021/03/29 03:05:38;;;;;;;;;;;19.20;53.80;;;;;;5014753;28;1408;-67
2021/03/29 03:08:04;;;;;;;;;;;19.20;53.70;;;;;;5014210;28;1418;-67
2021/03/29 03:10:30;;;;;;;;;;;19.20;53.70;;;;;;5032036;28;1104;-67
2021/03/29 03:12:55;;;;;;;;;;;19.20;53.50;;;;;;4995273;28;1372;-67
2021/03/29 03:15:24;;;;;;;;;;;19.30;53.50;;;;;;5017750;28;1235;-67
2021/03/29 03:17:51;;;;;;;;;;;19.30;53.50;;;;;;5017818;28;1294;-67
2021/03/29 03:20:16;;;;;;;;;;;19.40;53.40;;;;;;5017969;28;1906;-67
2021/03/29 03:23:01;;;;;;;;;;;19.40;53.30;;;;;;5029066;28;1104;-67
2021/03/29 03:25:27;;;;;;;;;;;19.50;53.20;;;;;;5018079;28;1205;-67
2021/03/29 03:27:52;;;;;;;;;;;19.60;52.90;;;;;;5035299;28;1250;-67
2021/03/29 03:30:25;;;;;;;;;;;19.70;52.80;;;;;;5017928;28;1268;-67
2021/03/29 03:32:51;;;;;;;;;;;19.80;52.60;;;;;;5038338;28;1108;-68
2021/03/29 03:35:16;;;;;;;;;;;19.90;52.40;;;;;;5035534;28;1347;-67
2021/03/29 03:37:43;;;;;;;;;;;20.00;52.20;;;;;;5035028;28;1294;-67
2021/03/29 03:40:09;;;;;;;;;;;20.10;52.10;;;;;;4997956;28;1907;-67
2021/03/29 03:42:34;;;;;;;;;;;20.20;51.90;;;;;;5033525;28;1101;-67
2021/03/29 03:45:00;;;;;;;;;;;20.20;51.70;;;;;;5017714;28;1090;-67
2021/03/29 03:47:25;;;;;;;;;;;20.30;51.60;;;;;;5017204;28;1140;-67
2021/03/29 03:49:51;;;;;;;;;;;20.40;51.40;;;;;;5017810;28;1303;-67
2021/03/29 03:52:16;;;;;;;;;;;20.40;51.30;;;;;;5017164;28;1182;-66
2021/03/29 03:54:42;;;;;;;;;;;20.50;51.30;;;;;;5017422;28;1408;-67
2021/03/29 03:57:08;;;;;;;;;;;20.50;51.10;;;;;;5016993;28;1412;-67
2021/03/29 03:59:34;;;;;;;;;;;20.60;51.10;;;;;;5017295;28;1895;-67
2021/03/29 04:02:06;;;;;;;;;;;20.60;51.00;;;;;;5035024;28;1362;-67
2021/03/29 04:04:31;;;;;;;;;;;20.60;50.90;;;;;;5034937;28;1080;-67
2021/03/29 04:06:57;;;;;;;;;;;20.70;50.90;;;;;;5017043;28;1180;-67
2021/03/29 04:09:31;;;;;;;;;;;20.70;50.80;;;;;;5034279;28;1190;-67
2021/03/29 04:11:56;;;;;;;;;;;20.70;50.70;;;;;;5018250;28;1196;-68
2021/03/29 04:14:22;;;;;;;;;;;20.80;50.70;;;;;;5017099;28;1341;-67
2021/03/29 04:16:47;;;;;;;;;;;20.80;50.70;;;;;;5034690;28;1101;-65
2021/03/29 04:19:13;;;;;;;;;;;20.80;51.20;;;;;;5016115;28;1910;-65
2021/03/29 04:21:38;;;;;;;;;;;20.80;50.50;;;;;;5037677;28;1203;-67
2021/03/29 04:24:04;;;;;;;;;;;20.80;50.50;;;;;;5024933;28;1355;-67
2021/03/29 04:26:29;;;;;;;;;;;20.90;50.50;;;;;;5033660;28;1120;-65
2021/03/29 04:28:55;;;;;;;;;;;20.90;50.50;;;;;;5034113;28;1353;-64
2021/03/29 04:31:20;;;;;;;;;;;20.90;50.40;;;;;;5034757;28;1143;-65
2021/03/29 04:33:45;;;;;;;;;;;21.00;50.40;;;;;;5019661;28;1199;-69
2021/03/29 04:36:11;;;;;;;;;;;20.90;50.30;;;;;;5034213;28;1228;-69
2021/03/29 04:38:36;;;;;;;;;;;21.00;50.40;;;;;;5016036;28;1906;-68
2021/03/29 04:41:02;;;;;;;;;;;21.00;50.40;;;;;;5034180;28;1116;-68
2021/03/29 04:43:28;;;;;;;;;;;21.00;50.30;;;;;;5034251;28;1045;-68
2021/03/29 04:45:53;;;;;;;;;;;21.00;50.30;;;;;;5016391;28;1192;-69
2021/03/29 04:48:19;;;;;;;;;;;21.00;50.20;;;;;;5033385;28;1286;-69
2021/03/29 04:50:44;;;;;;;;;;;21.10;50.30;;;;;;5034095;28;1116;-69
2021/03/29 04:53:09;;;;;;;;;;;21.10;50.20;;;;;;5034029;28;1065;-69
2021/03/29 04:55:35;;;;;;;;;;;21.10;50.20;;;;;;5016313;28;1160;-68
2021/03/29 04:58:00;;;;;;;;;;;21.10;50.20;;;;;;5033738;28;1268;-69
2021/03/29 05:00:26;;;;;;;;;;;21.10;50.20;;;;;;5033738;28;1895;-68
2021/03/29 05:02:51;;;;;;;;;;;21.20;50.30;;;;;;5016111;28;1306;-68
2021/03/29 05:05:16;;;;;;;;;;;21.20;50.20;;;;;;5033595;28;1068;-69
2021/03/29 05:07:43;;;;;;;;;;;21.20;50.20;;;;;;5033554;28;1396;-69
2021/03/29 05:10:09;;;;;;;;;;;21.20;50.20;;;;;;5016017;28;1179;-68
2021/03/29 05:12:35;;;;;;;;;;;21.20;50.10;;;;;;5015900;28;1112;-69
2021/03/29 05:15:00;;;;;;;;;;;21.20;50.10;;;;;;5033574;28;1160;-69
2021/03/29 05:17:26;;;;;;;;;;;21.20;50.10;;;;;;5033233;28;1073;-67
2021/03/29 05:19:51;;;;;;;;;;;21.20;50.10;;;;;;5020013;28;1898;-69
2021/03/29 05:22:16;;;;;;;;;;;21.30;50.10;;;;;;5041736;28;1073;-68
2021/03/29 05:24:42;;;;;;;;;;;21.30;50.10;;;;;;5035624;28;1191;-68
2021/03/29 05:27:07;;;;;;;;;;;21.30;50.10;;;;;;5033039;28;1084;-69
2021/03/29 05:29:41;;;;;;;;;;;21.30;50.10;;;;;;5033089;28;1310;-68
2021/03/29 05:32:10;;;;;;;;;;;21.30;50.10;;;;;;5018424;28;1097;-68
2021/03/29 05:34:36;;;;;;;;;;;21.30;50.20;;;;;;5016233;28;993;-69
2021/03/29 05:37:01;;;;;;;;;;;21.30;50.20;;;;;;5032957;28;1394;-68
2021/03/29 05:39:27;;;;;;;;;;;21.20;50.20;;;;;;5032610;28;1898;-65
2021/03/29 05:41:52;;;;;;;;;;;21.20;50.20;;;;;;5033102;28;1308;-67
2021/03/29 05:44:17;;;;;;;;;;;21.20;50.20;;;;;;5015228;28;1172;-67
2021/03/29 05:46:43;;;;;;;;;;;21.20;50.30;;;;;;5015314;28;1480;-67
2021/03/29 05:49:08;;;;;;;;;;;21.20;50.30;;;;;;5032531;28;1354;-67
2021/03/29 05:51:37;;;;;;;;;;;21.20;50.40;;;;;;5033023;28;1073;-67
2021/03/29 05:54:03;;;;;;;;;;;21.20;50.40;;;;;;5015301;28;1121;-67
2021/03/29 05:56:31;;;;;;;;;;;21.10;50.50;;;;;;5032981;28;1077;-67
2021/03/29 05:59:07;;;;;;;;;;;21.10;50.50;;;;;;5015010;28;1894;-67
2021/03/29 06:01:45;;;;;;;;;;;21.10;50.60;;;;;;5032804;28;1282;-67
2021/03/29 06:04:11;;;;;;;;;;;21.10;50.60;;;;;;5032950;28;1355;-67
2021/03/29 06:06:36;;;;;;;;;;;21.10;50.70;;;;;;5015134;28;1278;-67
2021/03/29 06:09:02;;;;;;;;;;;21.10;50.70;;;;;;5014643;28;1212;-66
2021/03/29 06:11:34;;;;;;;;;;;21.10;50.80;;;;;;5032709;28;1076;-66
2021/03/29 06:14:13;;;;;;;;;;;21.00;50.50;;;;;;5032637;28;1283;-67
2021/03/29 06:17:02;;;;;;;;;;;21.00;49.30;;;;;;5033048;28;1401;-67
2021/03/29 06:19:37;;;;;;;;;;;20.90;48.10;;;;;;5024225;28;1981;-67
2021/03/29 06:22:13;;;;;;;;;;;20.80;48.40;;;;;;5039158;28;1316;-66
2021/03/29 06:24:59;;;;;;;;;;;20.80;48.70;;;;;;5035547;28;1083;-65
2021/03/29 06:27:25;;;;;;;;;;;20.80;49.00;;;;;;5031913;28;1151;-64
2021/03/29 06:29:51;;;;;;;;;;;20.80;49.30;;;;;;5015039;28;1378;-64
2021/03/29 06:32:20;;;;;;;;;;;20.80;49.50;;;;;;5009898;28;1824;-64
2021/03/29 06:34:46;;;;;;;;;;;20.80;49.60;;;;;;5014528;28;1318;-63
2021/03/29 06:37:11;;;;;;;;;;;20.80;49.70;;;;;;5032161;28;1445;-67
2021/03/29 06:39:37;;;;;;;;;;;20.80;49.80;;;;;;5030506;28;1902;-66
2021/03/29 06:42:03;;;;;;;;;;;20.80;50.00;;;;;;5032319;28;1393;-67
2021/03/29 06:44:32;;;;;;;;;;;20.70;50.00;;;;;;5014757;28;1373;-67
2021/03/29 06:47:04;;;;;;;;;;;20.70;50.10;;;;;;5032310;28;1265;-67
2021/03/29 06:49:48;;;;;;;;;;;20.70;50.20;;;;;;5034530;28;1282;-66
2021/03/29 06:52:20;;;;;;;;;;;20.70;50.30;;;;;;5033398;28;1378;-68
2021/03/29 06:54:46;;;;;;;;;;;20.70;50.40;;;;;;5017619;28;1225;-68
2021/03/29 06:57:11;;;;;;;;;;;20.70;51.60;;;;;;5034648;28;1329;-68
2021/03/29 06:59:37;;;;;;;;;;;20.60;52.00;;;;;;5036209;28;1910;-67
2021/03/29 07:02:07;;;;;;;;;;;20.60;52.20;;;;;;5016011;28;1193;-67
2021/03/29 07:04:33;;;;;;;;;;;20.60;52.30;;;;;;5030803;28;1066;-68
2021/03/29 07:06:59;;;;;;;;;;;20.60;52.40;;;;;;5036335;28;1288;-67
2021/03/29 07:09:24;;;;;;;;;;;20.60;52.30;;;;;;5038576;28;1235;-65
2021/03/29 07:11:50;;;;;;;;;;;20.60;52.60;;;;;;5034094;28;1318;-65
2021/03/29 07:14:18;;;;;;;;;;;20.60;52.80;;;;;;5035083;28;1296;-65
2021/03/29 07:16:44;;;;;;;;;;;20.60;52.90;;;;;;5009136;28;1901;-65
2021/03/29 07:19:10;;;;;;;;;;;20.60;53.10;;;;;;5034959;28;1910;-65
2021/03/29 07:21:35;;;;;;;;;;;20.60;52.90;;;;;;5038200;28;1043;-65
2021/03/29 07:24:01;;;;;;;;;;;20.60;52.90;;;;;;5036359;28;1190;-65
2021/03/29 07:26:42;;;;;;;;;;;20.60;53.10;;;;;;5035544;28;1168;-65
2021/03/29 07:29:28;;;;;;;;;;;20.60;53.20;;;;;;5011881;28;1378;-65
2021/03/29 07:31:56;;;;;;;;;;;20.60;53.30;;;;;;5035851;28;1312;-65
2021/03/29 07:34:40;;;;;;;;;;;20.60;53.40;;;;;;5032762;28;1239;-65
2021/03/29 07:37:40;;;;;;;;;;;20.60;53.40;;;;;;5034938;28;1284;-65
2021/03/29 07:40:20;;;;;;;;;;;20.60;53.40;;;;;;4993290;28;1907;-66
2021/03/29 07:42:47;;;;;;;;;;;20.50;53.40;;;;;;5035014;28;1356;-65
2021/03/29 07:45:13;;;;;;;;;;;20.60;53.60;;;;;;5035133;28;1259;-65
2021/03/29 07:47:46;;;;;;;;;;;20.50;53.50;;;;;;5017277;28;1396;-65
2021/03/29 07:50:16;;;;;;;;;;;20.60;53.60;;;;;;5034871;28;1299;-65
2021/03/29 07:52:42;;;;;;;;;;;20.50;53.50;;;;;;5017820;28;1672;-65
2021/03/29 07:55:27;;;;;;;;;;;20.60;53.60;;;;;;5017434;28;1349;-65
2021/03/29 07:57:53;;;;;;;;;;;20.50;53.70;;;;;;5034746;28;1308;-65
2021/03/29 08:00:27;;;;;;;;;;;20.50;53.70;;;;;;5033413;28;1910;-65
2021/03/29 08:02:53;;;;;;;;;;;20.50;53.70;;;;;;5035094;28;1276;-65
2021/03/29 08:05:37;;;;;;;;;;;20.50;53.80;;;;;;5034741;28;1313;-66
2021/03/29 08:08:21;;;;;;;;;;;20.50;53.90;;;;;;5016661;28;1297;-67
2021/03/29 08:11:05;;;;;;;;;;;20.50;53.90;;;;;;5034808;28;1345;-65
2021/03/29 08:13:38;;;;;;;;;;;20.50;53.90;;;;;;5034919;28;1360;-66
2021/03/29 08:16:12;;;;;;;;;;;20.50;53.90;;;;;;5034634;28;1312;-65
2021/03/29 08:18:56;;;;;;;;;;;20.50;54.00;;;;;;5034196;28;1906;-65
2021/03/29 08:21:40;;;;;;;;;;;20.50;54.00;;;;;;5035261;28;1140;-66
2021/03/29 08:24:06;;;;;;;;;;;20.50;54.20;;;;;;5042069;28;1392;-66
2021/03/29 08:26:36;;;;;;;;;;;20.50;54.20;;;;;;5016596;28;1353;-66
2021/03/29 08:29:10;;;;;;;;;;;20.50;54.30;;;;;;5033882;28;1336;-65
2021/03/29 08:31:54;;;;;;;;;;;20.50;54.20;;;;;;5034248;28;1328;-65
2021/03/29 08:34:19;;;;;;;;;;;20.50;54.20;;;;;;5037366;28;1259;-65
2021/03/29 08:36:45;;;;;;;;;;;20.50;54.30;;;;;;5034118;28;1301;-65
2021/03/29 08:39:10;;;;;;;;;;;20.50;54.40;;;;;;5033595;28;1898;-65
2021/03/29 08:41:36;;;;;;;;;;;20.50;54.30;;;;;;5034006;28;1324;-65
2021/03/29 08:44:02;;;;;;;;;;;20.50;54.30;;;;;;5015251;28;1322;-65
2021/03/29 08:46:30;;;;;;;;;;;20.50;54.20;;;;;;5016682;28;1343;-65
2021/03/29 08:48:55;;;;;;;;;;;20.50;54.30;;;;;;5033861;28;1387;-65
2021/03/29 08:51:21;;;;;;;;;;;20.40;54.30;;;;;;5016477;28;1360;-64
2021/03/29 08:53:46;;;;;;;;;;;20.40;54.30;;;;;;5034049;28;1321;-64
2021/03/29 08:56:12;;;;;;;;;;;20.40;54.40;;;;;;5016013;28;1305;-65
2021/03/29 08:58:37;;;;;;;;;;;20.40;54.40;;;;;;5033340;28;1972;-65
2021/03/29 09:01:02;;;;;;;;;;;20.40;54.40;;;;;;5033917;28;1246;-65
2021/03/29 09:03:28;;;;;;;;;;;20.40;54.50;;;;;;5033631;28;1343;-67
2021/03/29 09:05:53;;;;;;;;;;;20.40;54.60;;;;;;5033734;28;1315;-65
2021/03/29 09:08:19;;;;;;;;;;;20.40;54.70;;;;;;5032794;28;1282;-64
2021/03/29 09:10:45;;;;;;;;;;;20.40;54.70;;;;;;5033473;28;1278;-66
2021/03/29 09:13:10;;;;;;;;;;;20.40;54.80;;;;;;5032955;28;1389;-64
2021/03/29 09:15:37;;;;;;;;;;;20.40;54.80;;;;;;5015875;28;1261;-64
2021/03/29 09:18:06;;;;;;;;;;;20.40;54.90;;;;;;5033043;28;1397;-64
2021/03/29 09:20:33;;;;;;;;;;;20.40;55.00;;;;;;5016067;28;1906;-64
2021/03/29 09:22:58;;;;;;;;;;;20.40;55.00;;;;;;5044717;28;1328;-65
2021/03/29 09:25:25;;;;;;;;;;;20.40;55.20;;;;;;5015630;28;1404;-65
2021/03/29 09:28:06;;;;;;;;;;;20.40;55.20;;;;;;5015259;28;1210;-64
2021/03/29 09:30:31;;;;;;;;;;;20.40;55.40;;;;;;5015842;28;1287;-65
2021/03/29 09:32:57;;;;;;;;;;;20.40;55.50;;;;;;5029522;28;1830;-64
2021/03/29 09:35:23;;;;;;;;;;;20.40;56.00;;;;;;5015407;28;1017;-64
2021/03/29 09:37:48;;;;;;;;;;;20.40;55.90;;;;;;5032685;28;1347;-64
2021/03/29 09:40:14;;;;;;;;;;;20.40;55.80;;;;;;5015347;28;1963;-66
2021/03/29 09:42:46;;;;;;;;;;;20.30;55.80;;;;;;5015438;28;1361;-65
2021/03/29 09:45:21;;;;;;;;;;;20.40;55.80;;;;;;5033172;28;1354;-65
2021/03/29 09:47:59;;;;;;;;;;;20.30;55.80;;;;;;5032893;28;1052;-64
2021/03/29 09:50:35;;;;;;;;;;;20.30;55.80;;;;;;5031925;28;978;-63
2021/03/29 09:53:07;;;;;;;;;;;20.30;55.90;;;;;;5025419;28;2171;-64
2021/03/29 09:55:42;;;;;;;;;;;20.30;56.10;;;;;;5032874;28;1323;-65
2021/03/29 09:58:37;;;;;;;;;;;20.40;56.10;;;;;;5032659;28;1329;-63
2021/03/29 10:01:04;;;;;;;;;;;20.30;56.00;;;;;;5019539;28;1369;-64
2021/03/29 10:03:33;;;;;;;;;;;20.30;55.90;;;;;;5015270;28;1325;-63
2021/03/29 10:05:58;;;;;;;;;;;20.30;56.00;;;;;;5032919;28;1305;-66
2021/03/29 10:08:25;;;;;;;;;;;20.30;56.00;;;;;;5032241;28;1343;-64
2021/03/29 10:10:57;;;;;;;;;;;20.30;56.10;;;;;;5032826;28;1279;-64
2021/03/29 10:13:29;;;;;;;;;;;20.30;56.10;;;;;;5014838;28;1298;-64
2021/03/29 10:15:55;;;;;;;;;;;20.40;56.10;;;;;;5032728;28;1273;-63
2021/03/29 10:18:20;;;;;;;;;;;20.40;56.00;;;;;;5031264;28;1795;-64
2021/03/29 10:20:45;;;;;;;;;;;20.40;55.90;;;;;;5029794;28;1902;-65
2021/03/29 10:23:27;;;;;;;;;;;20.40;55.90;;;;;;5032998;28;1693;-63
2021/03/29 10:26:12;;;;;;;;;;;20.40;55.80;;;;;;5019066;28;1507;-64
2021/03/29 10:28:37;;;;;;;;;;;20.40;55.90;;;;;;5030206;28;1855;-65
2021/03/29 10:31:03;;;;;;;;;;;20.40;55.90;;;;;;5036389;28;1221;-63
2021/03/29 10:33:28;;;;;;;;;;;20.30;55.90;;;;;;5021757;28;1329;-63
2021/03/29 10:35:53;;;;;;;;;;;20.30;55.80;;;;;;5036439;28;1264;-63
2021/03/29 10:38:19;;;;;;;;;;;20.30;55.80;;;;;;5036017;28;1273;-64
2021/03/29 10:40:47;;;;;;;;;;;20.30;55.90;;;;;;5036177;28;1898;-64
2021/03/29 10:43:13;;;;;;;;;;;20.30;55.80;;;;;;5036491;28;1372;-64
2021/03/29 10:45:38;;;;;;;;;;;20.30;55.90;;;;;;5034797;28;2194;-65
2021/03/29 10:48:04;;;;;;;;;;;20.30;55.90;;;;;;5035894;28;1583;-64
2021/03/29 10:50:29;;;;;;;;;;;20.30;55.90;;;;;;5036026;28;1264;-65
2021/03/29 10:52:54;;;;;;;;;;;20.30;56.00;;;;;;5036171;28;1324;-66
2021/03/29 10:55:20;;;;;;;;;;;20.30;56.10;;;;;;5035978;28;1299;-65
2021/03/29 10:57:45;;;;;;;;;;;20.30;56.10;;;;;;5035990;28;1261;-65
2021/03/29 11:00:11;;;;;;;;;;;20.30;56.20;;;;;;5036010;28;1968;-65
2021/03/29 11:02:37;;;;;;;;;;;20.30;56.20;;;;;;5018540;28;1277;-64
2021/03/29 11:05:03;;;;;;;;;;;20.30;56.20;;;;;;5036063;28;1297;-65
2021/03/29 11:07:28;;;;;;;;;;;20.30;56.20;;;;;;5036070;28;1293;-65
2021/03/29 11:09:54;;;;;;;;;;;20.30;56.20;;;;;;5035730;28;1364;-65
2021/03/29 11:12:20;;;;;;;;;;;20.30;56.20;;;;;;5035767;28;1279;-65
2021/03/29 11:14:45;;;;;;;;;;;20.30;56.40;;;;;;5035970;28;1243;-64
2021/03/29 11:17:11;;;;;;;;;;;20.30;56.40;;;;;;5035609;28;1358;-64
2021/03/29 11:19:37;;;;;;;;;;;20.30;56.30;;;;;;5035556;28;1967;-66
2021/03/29 11:22:02;;;;;;;;;;;20.30;56.30;;;;;;5041908;28;1291;-64
2021/03/29 11:24:28;;;;;;;;;;;20.30;56.50;;;;;;5040872;28;1424;-65
2021/03/29 11:26:53;;;;;;;;;;;20.30;56.30;;;;;;5035905;28;1138;-65
2021/03/29 11:29:19;;;;;;;;;;;20.30;56.30;;;;;;5035258;28;1408;-64
2021/03/29 11:31:44;;;;;;;;;;;20.30;56.30;;;;;;5035563;28;1077;-64
2021/03/29 11:34:10;;;;;;;;;;;20.30;56.30;;;;;;5038035;28;1362;-66
2021/03/29 11:36:35;;;;;;;;;;;20.30;56.30;;;;;;5035413;28;1353;-65
2021/03/29 11:39:01;;;;;;;;;;;20.30;56.40;;;;;;5034965;28;1965;-64
2021/03/29 11:41:26;;;;;;;;;;;20.30;56.40;;;;;;5035341;28;1381;-65
2021/03/29 11:43:52;;;;;;;;;;;20.30;56.40;;;;;;5028468;28;1857;-64
2021/03/29 11:46:17;;;;;;;;;;;20.30;56.50;;;;;;5035378;28;1501;-65
2021/03/29 11:48:43;;;;;;;;;;;20.30;56.40;;;;;;5016994;28;1525;-65
2021/03/29 11:51:08;;;;;;;;;;;20.30;56.50;;;;;;5035426;28;1625;-65
2021/03/29 11:53:35;;;;;;;;;;;20.30;56.50;;;;;;5017421;28;1634;-64
2021/03/29 11:56:00;;;;;;;;;;;20.30;56.50;;;;;;5018230;28;1967;-65
2021/03/29 11:58:26;;;;;;;;;;;20.30;56.50;;;;;;5018034;28;1276;-65
2021/03/29 12:00:58;;;;;;;;;;;20.30;56.50;;;;;;5034844;28;1963;-65
2021/03/29 12:03:50;;;;;;;;;;;20.40;56.20;;;;;;5034890;28;1423;-65
2021/03/29 12:06:21;;;;;;;;;;;20.40;56.40;;;;;;5012376;28;1333;-65
2021/03/29 12:08:55;;;;;;;;;;;20.40;55.10;;;;;;5021633;28;1292;-67
2021/03/29 12:14:07;;;;;;;;;;;20.40;53.40;;;;;;5019707;28;1305;-65
2021/03/29 12:16:38;;;;;;;;;;;20.40;52.70;;;;;;5016773;28;1160;-65
2021/03/29 12:19:03;;;;;;;;;;;20.40;51.30;;;;;;5017073;28;1911;-64
2021/03/29 12:21:30;;;;;;;;;;;20.50;51.10;;;;;;5018199;28;1417;-66
2021/03/29 12:23:59;;;;;;;;;;;20.50;50.30;;;;;;5004970;28;1366;-66
2021/03/29 12:26:25;;;;;;;;;;;20.50;49.00;;;;;;5015983;28;1129;-65
2021/03/29 12:28:52;;;;;;;;;;;20.50;49.30;;;;;;5033995;28;1312;-66
2021/03/29 12:31:17;;;;;;;;;;;20.50;49.80;;;;;;5034511;28;1354;-65
2021/03/29 12:33:43;;;;;;;;;;;20.50;48.90;;;;;;5010106;28;1950;-65
2021/03/29 12:36:09;;;;;;;;;;;20.50;48.00;;;;;;5008991;28;1384;-65
2021/03/29 12:38:38;;;;;;;;;;;20.50;47.60;;;;;;5014941;28;1391;-65
2021/03/29 12:41:04;;;;;;;;;;;20.50;47.90;;;;;;5034608;28;1304;-66
2021/03/29 12:43:37;;;;;;;;;;;20.40;48.20;;;;;;5014407;28;1216;-66
2021/03/29 12:46:03;;;;;;;;;;;20.40;47.00;;;;;;5015884;28;1073;-65
2021/03/29 12:48:29;;;;;;;;;;;20.40;47.10;;;;;;5032478;28;1373;-66
2021/03/29 12:50:54;;;;;;;;;;;20.40;47.70;;;;;;5015617;28;1353;-67
2021/03/29 12:53:22;;;;;;;;;;;20.40;48.50;;;;;;5032987;28;1292;-66
2021/03/29 12:55:47;;;;;;;;;;;20.40;48.00;;;;;;5032806;28;1368;-66
2021/03/29 12:58:13;;;;;;;;;;;20.40;48.10;;;;;;5014832;28;1339;-65
2021/03/29 13:00:38;;;;;;;;;;;20.50;47.90;;;;;;5032870;28;2040;-66
2021/03/29 13:03:04;;;;;;;;;;;20.40;48.30;;;;;;5032566;28;1381;-65
2021/03/29 13:05:41;;;;;;;;;;;20.40;48.40;;;;;;5014972;28;1545;-66
2021/03/29 13:08:11;;;;;;;;;;;20.40;48.50;;;;;;5032335;28;1258;-66
2021/03/29 13:13:02;;;;;;;;;;;20.40;47.40;;;;;;5051738;28;1477;-69
2021/03/29 13:15:28;;;;;;;;;;;20.40;47.00;;;;;;5034738;28;1437;-69
2021/03/29 13:17:56;;;;;;;;;;;20.40;47.40;;;;;;5032369;28;1677;-69
2021/03/29 13:20:22;;;;;;;;;;;20.40;47.80;;;;;;5032419;28;1993;-69
2021/03/29 13:22:49;;;;;;;;;;;20.40;47.70;;;;;;5036648;28;1599;-70
2021/03/29 13:25:14;;;;;;;;;;;20.40;46.70;;;;;;5018988;28;1213;-69
2021/03/29 13:27:40;;;;;;;;;;;20.40;47.00;;;;;;5038082;28;1545;-69
2021/03/29 13:30:09;;;;;;;;;;;20.30;47.10;;;;;;5052982;28;1656;-69
2021/03/29 13:32:35;;;;;;;;;;;20.30;46.70;;;;;;5048617;28;1607;-70
2021/03/29 13:35:00;;;;;;;;;;;20.30;46.40;;;;;;5041002;28;2002;-69
2021/03/29 13:37:26;;;;;;;;;;;20.30;46.30;;;;;;5044992;28;1274;-69
2021/03/29 13:39:52;;;;;;;;;;;20.30;46.60;;;;;;5015911;28;1948;-69
2021/03/29 13:42:18;;;;;;;;;;;20.30;46.40;;;;;;5040950;28;1668;-69
2021/03/29 13:44:43;;;;;;;;;;;20.40;46.50;;;;;;5052466;28;1586;-70
2021/03/29 13:47:09;;;;;;;;;;;20.30;46.90;;;;;;5021964;28;2359;-68
2021/03/29 13:49:34;;;;;;;;;;;20.40;47.00;;;;;;5043875;28;1398;-68
2021/03/29 13:52:00;;;;;;;;;;;20.40;47.10;;;;;;5019506;28;1468;-68
2021/03/29 13:54:26;;;;;;;;;;;20.40;47.20;;;;;;5033297;28;1662;-69
2021/03/29 13:56:51;;;;;;;;;;;20.30;47.10;;;;;;5033300;28;1732;-69
2021/03/29 13:59:17;;;;;;;;;;;20.30;47.00;;;;;;5031618;28;1898;-68
2021/03/29 14:01:42;;;;;;;;;;;20.30;46.80;;;;;;5020122;28;1643;-69
2021/03/29 14:04:12;;;;;;;;;;;20.30;47.40;;;;;;5035751;28;1383;-70
2021/03/29 14:06:37;;;;;;;;;;;20.30;47.30;;;;;;5038630;28;1381;-70
2021/03/29 14:09:03;;;;;;;;;;;20.30;47.00;;;;;;5051100;28;1351;-70
2021/03/29 14:11:28;;;;;;;;;;;20.30;47.10;;;;;;5049165;28;2168;-70
2021/03/29 14:13:53;;;;;;;;;;;20.30;47.90;;;;;;5043067;28;1010;-69
2021/03/29 14:16:19;;;;;;;;;;;20.30;47.80;;;;;;5036916;28;1072;-69
2021/03/29 14:18:46;;;;;;;;;;;20.30;48.20;;;;;;5023175;28;1918;-70
2021/03/29 14:21:12;;;;;;;;;;;20.30;48.00;;;;;;5037139;28;1179;-68
2021/03/29 14:23:37;;;;;;;;;;;20.30;48.60;;;;;;5036960;28;1274;-69
2021/03/29 14:26:03;;;;;;;;;;;20.20;48.70;;;;;;5017178;28;1145;-69
2021/03/29 14:28:31;;;;;;;;;;;20.20;49.10;;;;;;5052296;28;1131;-69
2021/03/29 14:30:56;;;;;;;;;;;20.20;47.40;;;;;;5015918;28;1325;-69
2021/03/29 14:33:23;;;;;;;;;;;20.20;48.50;;;;;;5038761;28;1171;-69
2021/03/29 14:36:11;;;;;;;;;;;20.20;48.20;;;;;;5032612;28;1068;-69
2021/03/29 14:38:51;;;;;;;;;;;20.20;48.20;;;;;;5032505;28;1230;-69